Time;durP1;ratioP1;P1;durP2;ratioP2;P2;SDS_P1;SDS_P2;PMS_P1;PMS_P2;Temp;Humidity;BMP_temperature;BMP_pressure;BME280_temperature;BME280_humidity;BME280_pressure;Samples;Min_cycle;Max_cycle;Signal;HPM_P1;HPM_P2
2022/07/19 00:00:33;;;;;;;;;7.33;5.67;;;;;-146.67;23.69;72879.13;5061750;28;61723;-74
2022/07/19 00:02:58;;;;;;;;;7.00;5.00;;;;;-146.67;23.70;72887.09;5043598;28;61859;-75
2022/07/19 00:05:24;;;;;;;;;8.00;6.00;;;;;-146.67;23.88;72887.09;5061067;28;61801;-75
2022/07/19 00:07:50;;;;;;;;;10.00;8.00;;;;;-146.67;23.84;72887.09;5043377;28;61690;-75
2022/07/19 00:10:19;;;;;;;;;6.33;6.33;;;;;-146.67;23.88;72891.09;5061763;28;61747;-75
2022/07/19 00:12:45;;;;;;;;;5.33;5.33;;;;;-146.67;23.87;72891.09;5043443;28;61810;-75
2022/07/19 00:15:13;;;;;;;;;10.00;7.00;;;;;-146.67;23.91;72901.06;5060822;28;62692;-75
2022/07/19 00:17:41;;;;;;;;;6.33;6.00;;;;;-146.67;23.62;72905.06;5043428;28;61657;-75
2022/07/19 00:20:09;;;;;;;;;6.33;6.33;;;;;-146.67;23.97;72913.03;5043209;28;61984;-75
2022/07/19 00:22:35;;;;;;;;;10.67;8.00;;;;;-146.67;24.25;72919.03;5061439;28;61837;-75
2022/07/19 00:25:00;;;;;;;;;10.00;6.00;;;;;-146.67;24.00;72917.03;5062530;28;61861;-75
2022/07/19 00:27:25;;;;;;;;;8.00;8.00;;;;;-146.67;24.45;72919.03;5064915;28;61830;-75
2022/07/19 00:29:51;;;;;;;;;8.33;8.33;;;;;-146.67;24.18;72921.03;5064774;28;61921;-75
2022/07/19 00:32:16;;;;;;;;;10.33;7.33;;;;;-146.67;24.26;72925.03;5064940;28;61918;-75
2022/07/19 00:34:42;;;;;;;;;8.00;7.00;;;;;-146.67;24.18;72923.03;5064255;28;61836;-75
2022/07/19 00:37:07;;;;;;;;;8.67;8.00;;;;;-146.67;24.03;72925.03;5064731;28;61698;-75
2022/07/19 00:39:33;;;;;;;;;8.33;8.33;;;;;-146.67;24.08;72927.00;5064526;28;61835;-75
2022/07/19 00:41:58;;;;;;;;;5.67;4.33;;;;;-146.67;24.28;72927.00;5046458;28;62133;-75
2022/07/19 00:44:24;;;;;;;;;7.00;7.00;;;;;-146.67;24.07;72935.00;5064066;28;61726;-75
2022/07/19 00:46:50;;;;;;;;;7.00;5.67;;;;;-146.67;24.08;72939.00;5046442;28;61905;-75
2022/07/19 00:49:15;;;;;;;;;7.00;7.00;;;;;-146.67;24.45;72942.97;5064439;28;61746;-75
2022/07/19 00:51:42;;;;;;;;;8.00;6.67;;;;;-146.67;24.48;72944.97;5063092;28;62167;-75
2022/07/19 00:54:11;;;;;;;;;7.33;5.33;;;;;-146.67;24.13;72950.97;5063500;28;61798;-75
2022/07/19 00:56:40;;;;;;;;;11.00;7.33;;;;;-146.67;24.36;72954.97;5064064;28;61700;-75
2022/07/19 00:59:07;;;;;;;;;5.67;5.67;;;;;-146.67;24.41;72956.94;5064252;28;61682;-75
2022/07/19 01:01:33;;;;;;;;;7.33;6.67;;;;;-146.67;24.11;72962.94;5064538;28;61832;-75
2022/07/19 01:03:59;;;;;;;;;6.67;5.00;;;;;-146.67;24.55;72960.94;5063551;28;61941;-75
2022/07/19 01:06:25;;;;;;;;;13.67;7.67;;;;;-146.67;24.20;72966.94;5064120;28;61971;-75
2022/07/19 01:08:50;;;;;;;;;9.00;6.00;;;;;-146.67;24.39;72972.91;5046006;28;61983;-75
2022/07/19 01:11:16;;;;;;;;;10.00;7.50;;;;;-146.67;24.61;72974.91;5063987;28;62046;-75
2022/07/19 01:13:42;;;;;;;;;4.33;4.33;;;;;-146.67;24.30;72976.91;5045349;28;63539;-75
2022/07/19 01:16:07;;;;;;;;;6.00;6.00;;;;;-146.67;24.56;72982.91;5064050;28;61833;-75
2022/07/19 01:18:33;;;;;;;;;8.67;4.67;;;;;-146.67;24.59;72986.88;5064130;28;61652;-75
2022/07/19 01:20:59;;;;;;;;;9.67;7.67;;;;;-146.67;24.35;72994.88;5063972;28;62133;-75
2022/07/19 01:23:25;;;;;;;;;5.00;4.00;;;;;-146.67;24.59;72998.84;5062897;28;62761;-75
2022/07/19 01:25:50;;;;;;;;;6.33;5.00;;;;;-146.67;24.52;73002.84;5063573;28;61833;-75
2022/07/19 01:28:16;;;;;;;;;10.00;6.00;;;;;-146.67;24.24;73002.84;5045752;28;61976;-75
2022/07/19 01:30:41;;;;;;;;;7.00;6.00;;;;;-146.67;24.64;73006.84;5064216;28;61731;-75
2022/07/19 01:33:07;;;;;;;;;8.33;6.00;;;;;-146.67;24.36;73004.84;5063362;28;62956;-76
2022/07/19 01:35:33;;;;;;;;;6.33;5.00;;;;;-146.67;24.19;73006.84;5062742;28;62192;-75
2022/07/19 01:37:58;;;;;;;;;8.00;7.00;;;;;-146.67;24.57;73018.81;5063667;28;61925;-76
2022/07/19 01:40:25;;;;;;;;;7.00;5.67;;;;;-146.67;24.27;73014.81;5063833;28;61774;-76
2022/07/19 01:42:51;;;;;;;;;9.67;7.67;;;;;-146.67;24.69;73012.84;5063225;28;62944;-76
2022/07/19 01:45:17;;;;;;;;;6.33;6.33;;;;;-146.67;24.49;73018.81;5045227;28;61850;-76
2022/07/19 01:47:43;;;;;;;;;5.33;5.33;;;;;-146.67;24.71;73026.81;5063657;28;61661;-76
2022/07/19 01:50:12;;;;;;;;;9.00;4.33;;;;;-146.67;24.84;73026.81;5063737;28;61683;-76
2022/07/19 01:52:38;;;;;;;;;6.33;6.33;;;;;-146.67;24.64;73034.78;5044097;28;62878;-76
2022/07/19 01:55:04;;;;;;;;;6.33;5.67;;;;;-146.67;24.57;73034.78;5063405;28;61892;-76
2022/07/19 01:57:30;;;;;;;;;6.00;4.67;;;;;-146.67;24.34;73042.75;5063456;28;62162;-76
2022/07/19 01:59:55;;;;;;;;;8.00;7.00;;;;;-146.67;24.46;73048.75;5063676;28;61999;-76
2022/07/19 02:02:21;;;;;;;;;5.00;5.00;;;;;-146.67;24.37;73058.72;5044730;28;63123;-76
2022/07/19 02:04:47;;;;;;;;;7.00;6.00;;;;;-146.67;24.52;73064.72;5063517;28;61810;-76
2022/07/19 02:07:12;;;;;;;;;5.00;5.00;;;;;-146.67;24.68;73064.72;5063188;28;61884;-76
2022/07/19 02:09:38;;;;;;;;;4.67;4.67;;;;;-146.67;24.44;73062.72;5063352;28;61793;-76
2022/07/19 02:12:03;;;;;;;;;6.33;5.67;;;;;-146.67;24.24;73066.72;5062595;28;62313;-76
2022/07/19 02:14:28;;;;;;;;;6.00;4.33;;;;;-146.67;24.28;73062.72;5062969;28;61915;-76
2022/07/19 02:16:54;;;;;;;;;4.00;3.33;;;;;-146.67;24.44;73064.72;5045139;28;61819;-76
2022/07/19 02:19:21;;;;;;;;;6.33;4.00;;;;;-146.67;24.48;73070.72;5045281;28;62209;-76
2022/07/19 02:21:46;;;;;;;;;7.00;6.00;;;;;-146.67;24.34;73068.72;5061897;28;61868;-76
2022/07/19 02:24:11;;;;;;;;;5.67;5.00;;;;;-146.67;24.65;73066.72;5062736;28;61840;-76
2022/07/19 02:26:37;;;;;;;;;5.33;5.33;;;;;-146.67;24.06;73074.69;5062600;28;61953;-76
2022/07/19 02:29:03;;;;;;;;;5.33;3.33;;;;;-146.67;24.60;73068.72;5063321;28;61949;-76
2022/07/19 02:31:28;;;;;;;;;7.33;4.67;;;;;-146.67;24.74;73078.69;5062368;28;61826;-76
2022/07/19 02:33:54;;;;;;;;;3.33;3.33;;;;;-146.67;24.60;73078.69;5062696;28;61757;-76
2022/07/19 02:36:19;;;;;;;;;5.00;5.00;;;;;-146.67;24.79;73080.69;5062637;28;61823;-76
2022/07/19 02:38:45;;;;;;;;;4.67;4.00;;;;;-146.67;24.65;73080.69;5063184;28;61722;-76
2022/07/19 02:41:11;;;;;;;;;5.67;5.00;;;;;-146.67;24.91;73078.69;5061997;28;61772;-76
2022/07/19 02:43:36;;;;;;;;;7.00;6.00;;;;;-146.67;24.56;73078.69;5062628;28;61885;-76
2022/07/19 02:46:02;;;;;;;;;8.00;4.67;;;;;-146.67;24.72;73080.69;5062785;28;61773;-76
2022/07/19 02:48:27;;;;;;;;;5.33;4.00;;;;;-146.67;24.47;73086.69;5062536;28;61645;-76
2022/07/19 02:50:53;;;;;;;;;5.00;4.00;;;;;-146.67;24.82;73084.69;5061531;28;61722;-76
2022/07/19 02:53:18;;;;;;;;;5.33;5.33;;;;;-146.67;25.02;73082.69;5062643;28;61747;-76
2022/07/19 02:55:44;;;;;;;;;6.67;5.00;;;;;-146.67;24.81;73082.69;5062476;28;61836;-76
2022/07/19 02:58:09;;;;;;;;;4.67;4.00;;;;;-146.67;24.50;73090.66;5044483;28;61793;-76
2022/07/19 03:00:35;;;;;;;;;4.00;4.00;;;;;-146.67;24.78;73088.66;5062154;28;62139;-76
2022/07/19 03:05:46;;;;;;;;;4.00;4.00;;;;;-146.67;25.14;73098.66;5062200;28;61948;-76
2022/07/19 03:08:11;;;;;;;;;6.33;5.00;;;;;-146.67;24.85;73098.66;5062597;28;61721;-76
2022/07/19 03:10:37;;;;;;;;;3.67;3.67;;;;;-146.67;24.99;73104.63;5043534;28;63621;-76
2022/07/19 03:13:03;;;;;;;;;3.67;3.67;;;;;-146.67;24.59;73112.63;5062164;28;61765;-76
2022/07/19 03:15:28;;;;;;;;;5.00;4.33;;;;;-146.67;24.80;73116.59;5062368;28;61778;-76
2022/07/19 03:17:53;;;;;;;;;5.00;4.33;;;;;-146.67;25.04;73124.59;5062395;28;62276;-76
2022/07/19 03:20:19;;;;;;;;;5.67;4.00;;;;;-146.67;25.15;73126.59;5043192;28;63695;-76
2022/07/19 03:22:44;;;;;;;;;6.00;3.67;;;;;-146.67;25.00;73130.59;5061477;28;61849;-76
2022/07/19 03:25:10;;;;;;;;;4.33;4.33;;;;;-146.67;25.24;73132.56;5043923;28;61857;-76
2022/07/19 03:27:35;;;;;;;;;5.33;5.33;;;;;-146.67;25.05;73132.56;5062268;28;61842;-76
2022/07/19 03:30:01;;;;;;;;;4.67;3.00;;;;;-146.67;25.32;73136.56;5061591;28;62156;-76
2022/07/19 03:32:26;;;;;;;;;4.67;2.67;;;;;-146.67;25.22;73142.56;5043959;28;61841;-76
2022/07/19 03:34:52;;;;;;;;;5.00;5.00;;;;;-146.67;25.54;73150.53;5061931;28;61693;-76
2022/07/19 03:37:17;;;;;;;;;7.67;5.33;;;;;-146.67;24.95;73158.53;5062388;28;61805;-76
2022/07/19 03:39:43;;;;;;;;;5.00;4.00;;;;;-146.67;25.35;73158.53;5043291;28;63571;-76
2022/07/19 03:42:09;;;;;;;;;5.67;4.00;;;;;-146.67;24.99;73172.50;5061839;28;61800;-76
2022/07/19 03:44:34;;;;;;;;;5.50;5.50;;;;;-146.67;25.21;73174.50;5043557;28;62010;-76
2022/07/19 03:47:00;;;;;;;;;4.00;4.00;;;;;-146.67;25.57;73180.47;5061946;28;61926;-76
2022/07/19 03:49:25;;;;;;;;;6.00;5.00;;;;;-146.67;25.05;73178.47;5061167;28;62071;-76
2022/07/19 03:51:51;;;;;;;;;6.00;4.67;;;;;-146.67;25.26;73184.47;5061628;28;62020;-76
2022/07/19 03:54:16;;;;;;;;;6.67;4.33;;;;;-146.67;25.31;73188.47;5061874;28;61702;-76
2022/07/19 03:56:42;;;;;;;;;7.33;5.00;;;;;-146.67;25.36;73192.44;5043772;28;62022;-76
2022/07/19 03:59:07;;;;;;;;;5.00;4.00;;;;;-146.67;25.42;73192.44;5062291;28;61939;-76
2022/07/19 04:01:33;;;;;;;;;6.50;5.75;;;;;-146.67;25.19;73190.44;5065328;28;61922;-76
2022/07/19 04:03:58;;;;;;;;;4.00;4.00;;;;;-146.67;25.61;73192.44;5065268;28;61912;-76
2022/07/19 04:06:29;;;;;;;;;9.00;4.33;;;;;-146.67;25.39;73196.44;5065430;28;61934;-76
2022/07/19 04:08:55;;;;;;;;;3.67;3.67;;;;;-146.67;25.29;73204.44;5046421;28;64590;-77
2022/07/19 04:11:20;;;;;;;;;6.50;4.50;;;;;-146.67;25.17;73204.44;5046622;28;61715;-76
2022/07/19 04:13:45;;;;;;;;;5.00;5.00;;;;;-146.67;25.48;73200.44;5046835;28;62102;-76
2022/07/19 04:16:11;;;;;;;;;6.33;5.00;;;;;-146.67;25.39;73210.41;5065377;28;61775;-76
2022/07/19 04:18:38;;;;;;;;;8.00;6.00;;;;;-146.67;25.71;73210.41;5064316;28;61900;-76
2022/07/19 04:21:04;;;;;;;;;3.33;3.33;;;;;-146.67;25.42;73202.44;5080493;28;61947;-76
2022/07/19 04:23:30;;;;;;;;;7.00;5.67;;;;;-146.67;25.31;73220.38;5064784;28;61966;-76
2022/07/19 04:25:55;;;;;;;;;5.67;3.00;;;;;-146.67;25.62;73212.41;5064840;28;61755;-76
2022/07/19 04:28:21;;;;;;;;;4.00;3.00;;;;;-146.67;25.62;73214.41;5064122;28;61798;-76
2022/07/19 04:30:46;;;;;;;;;5.25;4.25;;;;;-146.67;25.25;73216.41;5065033;28;61891;-76
2022/07/19 04:33:14;;;;;;;;;4.00;4.00;;;;;-146.67;25.58;73212.41;5046166;28;61897;-76
2022/07/19 04:35:40;;;;;;;;;6.00;5.00;;;;;-146.67;25.83;73206.41;5046868;28;61934;-76
2022/07/19 04:38:05;;;;;;;;;7.50;5.75;;;;;-146.67;25.20;73204.44;5064296;28;62791;-76
2022/07/19 04:40:30;;;;;;;;;8.00;4.50;;;;;-146.67;25.13;73212.41;5064660;28;61973;-76
2022/07/19 04:42:56;;;;;;;;;4.00;4.00;;;;;-146.67;25.23;73212.41;5064443;28;61777;-76
2022/07/19 04:45:21;;;;;;;;;6.00;5.00;;;;;-146.67;25.24;73210.41;5064756;28;61829;-76
2022/07/19 04:47:47;;;;;;;;;5.67;3.67;;;;;-146.67;25.19;73208.41;5063720;28;62267;-76
2022/07/19 04:50:12;;;;;;;;;5.25;4.75;;;;;-146.67;25.20;73202.44;5064575;28;61800;-76
2022/07/19 04:52:38;;;;;;;;;8.67;4.00;;;;;-146.67;25.43;73212.41;5064268;28;62451;-76
2022/07/19 04:55:04;;;;;;;;;8.00;5.00;;;;;-146.67;25.28;73206.41;5046626;28;61887;-76
2022/07/19 04:57:29;;;;;;;;;5.25;4.50;;;;;-146.67;25.08;73208.41;5063629;28;61826;-76
2022/07/19 04:59:54;;;;;;;;;4.75;4.75;;;;;-146.67;25.26;73204.44;5064373;28;61770;-76
2022/07/19 05:02:20;;;;;;;;;4.00;4.00;;;;;-146.67;25.51;73194.44;5064135;28;62427;-76
2022/07/19 05:04:45;;;;;;;;;8.67;6.33;;;;;-146.67;25.38;73196.44;5064625;28;61727;-76
2022/07/19 05:07:10;;;;;;;;;4.50;4.50;;;;;-146.67;25.33;73192.44;5063581;28;61836;-76
2022/07/19 05:09:36;;;;;;;;;5.50;5.00;;;;;-146.67;25.76;73190.44;5064081;28;62025;-76
2022/07/19 05:12:05;;;;;;;;;5.00;5.00;;;;;-146.67;25.55;73178.47;5046213;28;61826;-76
2022/07/19 05:14:30;;;;;;;;;4.67;4.67;;;;;-146.67;25.68;73180.47;5045864;28;61767;-76
2022/07/19 05:16:56;;;;;;;;;6.25;5.00;;;;;-146.67;25.65;73176.47;5063388;28;61715;-76
2022/07/19 05:19:21;;;;;;;;;5.00;4.00;;;;;-146.67;25.71;73172.50;5064264;28;61805;-76
2022/07/19 05:21:47;;;;;;;;;12.00;6.00;;;;;-146.67;25.70;73164.50;5063877;28;61796;-76
2022/07/19 05:24:13;;;;;;;;;7.25;4.75;;;;;-146.67;25.81;73160.50;5064043;28;61854;-76
2022/07/19 05:26:38;;;;;;;;;5.67;5.00;;;;;-146.67;25.53;73152.53;5063015;28;61994;-76
2022/07/19 05:29:04;;;;;;;;;4.75;4.75;;;;;-146.67;25.58;73146.53;5045631;28;61941;-76
2022/07/19 05:31:29;;;;;;;;;8.00;3.75;;;;;-146.67;25.19;73140.56;5064064;28;61838;-76
2022/07/19 05:33:55;;;;;;;;;5.25;5.25;;;;;-146.67;25.37;73130.59;5063967;28;61786;-76
2022/07/19 05:36:20;;;;;;;;;6.25;6.25;;;;;-146.67;25.29;73116.59;5063241;28;61849;-76
2022/07/19 05:38:46;;;;;;;;;7.75;6.25;;;;;-146.67;25.62;73102.63;5063755;28;61845;-76
2022/07/19 05:41:11;;;;;;;;;4.00;4.00;;;;;-146.67;25.45;73102.63;5063961;28;61945;-76
2022/07/19 05:43:38;;;;;;;;;8.67;6.00;;;;;-146.67;25.71;73088.66;5045473;28;62139;-76
2022/07/19 05:46:05;;;;;;;;;5.75;5.75;;;;;-146.67;25.51;73066.72;5063226;28;62035;-76
2022/07/19 05:48:31;;;;;;;;;5.00;5.00;;;;;-146.67;25.33;73030.78;5063595;28;61859;-76
2022/07/19 05:50:57;;;;;;;;;7.67;5.00;;;;;-146.67;25.40;72994.88;5045272;28;61857;-79
2022/07/19 05:53:23;;;;;;;;;8.67;6.33;;;;;-146.67;25.33;72976.91;5063924;28;61754;-76
2022/07/19 05:55:48;;;;;;;;;7.33;5.00;;;;;-146.67;24.74;72946.97;5062507;28;61805;-76
2022/07/19 05:58:17;;;;;;;;;8.33;7.00;;;;;-146.67;24.68;72917.03;5062684;28;62042;-75
2022/07/19 06:01:17;;;;;;;;;8.00;6.00;;;;;-146.67;24.57;72887.09;5061829;28;61816;-75
2022/07/19 06:03:28;;;;;;;;;6.67;6.33;;;;;-146.67;24.12;72857.16;5063286;28;62005;-75
2022/07/19 06:05:53;;;;;;;;;5.33;4.33;;;;;-146.67;24.35;72833.22;5061666;28;62761;-75
2022/07/19 06:08:19;;;;;;;;;7.00;7.00;;;;;-146.67;23.55;72829.22;5063380;28;61742;-75
2022/07/19 06:10:44;;;;;;;;;7.67;7.00;;;;;-146.67;23.40;72799.28;5063157;28;61763;-74
2022/07/19 06:13:09;;;;;;;;;7.33;6.00;;;;;-146.67;23.47;72775.34;5044957;28;62162;-75
2022/07/19 06:15:35;;;;;;;;;6.00;5.00;;;;;-146.67;23.24;72739.44;5043723;28;63848;-77
2022/07/19 06:18:00;;;;;;;;;8.00;6.00;;;;;-146.67;22.90;72711.50;5044387;28;61800;-77
2022/07/19 06:20:25;;;;;;;;;8.33;5.67;;;;;-146.67;22.70;72671.59;5062589;28;61842;-75
2022/07/19 06:22:51;;;;;;;;;7.33;6.33;;;;;-146.67;22.85;72637.66;5059901;28;61613;-75
2022/07/19 06:25:16;;;;;;;;;12.33;6.00;;;;;-146.67;22.51;72585.78;5054801;28;61774;-75
2022/07/19 06:27:42;;;;;;;;;11.67;6.33;;;;;-146.67;22.23;72503.97;5062117;28;61872;-79
2022/07/19 06:30:08;;;;;;;;;10.33;8.33;;;;;-146.67;21.62;72438.09;5078645;28;61785;-75
2022/07/19 06:32:33;;;;;;;;;6.67;4.67;;;;;-146.67;21.85;72432.13;5063248;28;61991;-75
2022/07/19 06:34:59;;;;;;;;;6.67;5.00;;;;;-146.67;22.11;72464.06;5062088;28;61900;-74
2022/07/19 06:37:24;;;;;;;;;8.00;5.00;;;;;-146.67;21.99;72482.00;5062561;28;61889;-75
2022/07/19 06:39:49;;;;;;;;;9.33;8.00;;;;;-146.67;22.43;72484.00;5062733;28;61985;-75
2022/07/19 06:42:15;;;;;;;;;7.33;7.33;;;;;-146.67;22.12;72476.03;5062812;28;61759;-75
2022/07/19 06:44:40;;;;;;;;;7.33;7.33;;;;;-146.67;22.18;72476.03;5062211;28;62099;-76
2022/07/19 06:47:06;;;;;;;;;7.00;7.00;;;;;-146.67;22.34;72478.03;5043857;28;61935;-75
2022/07/19 06:49:31;;;;;;;;;5.33;5.33;;;;;-146.67;21.84;72484.00;5062689;28;61827;-75
2022/07/19 06:51:56;;;;;;;;;5.00;4.00;;;;;-146.67;22.13;72497.97;5062403;28;61777;-75
2022/07/19 06:54:22;;;;;;;;;7.00;7.00;;;;;-146.67;22.31;72511.94;5043410;28;64250;-75
2022/07/19 06:56:48;;;;;;;;;8.67;6.33;;;;;-146.67;22.41;72527.91;5044055;28;61902;-75
2022/07/19 06:59:13;;;;;;;;;7.00;6.33;;;;;-146.67;22.57;72529.91;5062469;28;61898;-75
2022/07/19 07:01:39;;;;;;;;;6.00;6.00;;;;;-146.67;22.36;72541.88;5062988;28;61890;-75
2022/07/19 07:04:04;;;;;;;;;8.00;6.67;;;;;-146.67;21.91;72539.88;5061382;28;62643;-75
2022/07/19 07:06:29;;;;;;;;;6.00;4.33;;;;;-146.67;22.48;72533.88;5062504;28;61915;-73
2022/07/19 07:08:55;;;;;;;;;8.00;6.00;;;;;-146.67;22.32;72547.84;5062679;28;61948;-76
2022/07/19 07:11:20;;;;;;;;;6.67;6.67;;;;;-146.67;22.31;72547.84;5043793;28;61863;-75
2022/07/19 07:13:46;;;;;;;;;10.33;7.67;;;;;-146.67;22.36;72547.84;5061614;28;62690;-76
2022/07/19 07:16:11;;;;;;;;;9.00;6.33;;;;;-146.67;22.20;72539.88;5044155;28;61799;-75
2022/07/19 07:18:36;;;;;;;;;4.33;2.00;;;;;-146.67;22.31;72539.88;5062166;28;62181;-75
2022/07/19 07:21:02;;;;;;;;;5.00;5.00;;;;;-146.67;22.40;72539.88;5044174;28;62156;-76
2022/07/19 07:23:28;;;;;;;;;6.00;6.00;;;;;-146.67;22.17;72539.88;5061490;28;61829;-74
2022/07/19 07:25:53;;;;;;;;;6.67;5.33;;;;;-146.67;22.34;72535.88;5042695;28;61898;-74
2022/07/19 07:28:19;;;;;;;;;7.67;6.33;;;;;-146.67;22.43;72535.88;5044095;28;62016;-74
2022/07/19 07:30:45;;;;;;;;;6.00;6.00;;;;;-146.67;22.35;72533.88;5062074;28;61724;-74
2022/07/19 07:33:10;;;;;;;;;6.67;5.33;;;;;-146.67;22.25;72523.91;5061227;28;61797;-75
2022/07/19 07:35:35;;;;;;;;;8.67;6.67;;;;;-146.67;22.44;72517.94;5064657;28;61864;-75
2022/07/19 07:38:01;;;;;;;;;9.33;6.67;;;;;-146.67;22.45;72519.91;5065465;28;61930;-75
2022/07/19 07:40:26;;;;;;;;;9.33;8.33;;;;;-146.67;22.33;72515.94;5064708;28;61814;-74
2022/07/19 07:42:52;;;;;;;;;6.00;6.00;;;;;-146.67;22.56;72511.94;5064392;28;61777;-77
2022/07/19 07:45:17;;;;;;;;;8.33;8.33;;;;;-146.67;22.57;72511.94;5065430;28;61844;-77
2022/07/19 07:47:42;;;;;;;;;6.33;6.33;;;;;-146.67;22.56;72511.94;5064699;28;61779;-75
2022/07/19 07:50:09;;;;;;;;;10.00;7.33;;;;;-146.67;22.17;72501.97;5065318;28;61937;-77
2022/07/19 07:52:35;;;;;;;;;12.33;6.67;;;;;-146.67;22.21;72503.97;5060825;28;61761;-76
2022/07/19 07:55:01;;;;;;;;;10.00;7.00;;;;;-146.67;22.40;72501.97;5045522;28;61979;-79
2022/07/19 07:57:26;;;;;;;;;7.33;7.33;;;;;-146.67;22.77;72493.97;5035329;28;61949;-75
2022/07/19 07:59:52;;;;;;;;;9.33;6.67;;;;;-146.67;22.54;72490.00;5044095;28;62007;-74
2022/07/19 08:02:17;;;;;;;;;7.33;7.33;;;;;-146.67;22.19;72488.00;5055786;28;62850;-75
2022/07/19 08:04:43;;;;;;;;;9.00;8.00;;;;;-146.67;22.55;72480.00;5045726;28;61993;-79
2022/07/19 08:07:08;;;;;;;;;9.67;7.67;;;;;-146.67;22.02;72478.03;5071538;28;61810;-76
2022/07/19 08:09:33;;;;;;;;;9.33;6.67;;;;;-146.67;22.40;72470.03;5044235;28;61803;-76
2022/07/19 08:11:59;;;;;;;;;7.33;6.67;;;;;-146.67;22.33;72476.03;5044966;28;62149;-73
2022/07/19 08:14:24;;;;;;;;;9.00;7.00;;;;;-146.67;22.19;72470.03;5044730;28;61916;-74
2022/07/19 08:16:50;;;;;;;;;11.67;9.00;;;;;-146.67;22.22;72466.03;5054098;28;61938;-74
2022/07/19 08:19:15;;;;;;;;;8.00;6.33;;;;;-146.67;22.23;72464.06;5064791;28;62188;-75
2022/07/19 08:21:40;;;;;;;;;7.00;7.00;;;;;-146.67;21.97;72452.06;5063849;28;61816;-74
2022/07/19 08:24:06;;;;;;;;;10.00;8.00;;;;;-146.67;21.71;72462.06;5061275;28;61964;-76
2022/07/19 08:26:31;;;;;;;;;6.33;6.33;;;;;-146.67;21.92;72456.06;5063920;28;61817;-78
2022/07/19 08:28:57;;;;;;;;;8.00;8.00;;;;;-146.67;21.68;72440.09;5064140;28;61972;-74
2022/07/19 08:31:23;;;;;;;;;6.00;6.00;;;;;-146.67;21.94;72442.09;5056867;28;63082;-75
2022/07/19 08:33:48;;;;;;;;;7.67;6.33;;;;;-146.67;22.18;72438.09;5059542;28;61805;-75
2022/07/19 08:36:14;;;;;;;;;10.33;8.33;;;;;-146.67;22.22;72432.13;5055549;28;62066;-77
2022/07/19 08:38:40;;;;;;;;;8.00;8.00;;;;;-146.67;21.73;72432.13;5063677;28;62170;-75
2022/07/19 08:41:06;;;;;;;;;8.33;7.00;;;;;-146.67;21.30;72420.16;5063576;28;62684;-73
2022/07/19 08:43:31;;;;;;;;;9.33;8.67;;;;;-146.67;21.73;72412.16;5061160;28;63427;-74
2022/07/19 08:45:59;;;;;;;;;7.00;6.00;;;;;-146.67;21.53;72398.19;5046021;28;61788;-76
2022/07/19 08:48:26;;;;;;;;;8.67;7.00;;;;;-146.67;21.39;72398.19;5064815;28;61935;-74
2022/07/19 08:50:53;;;;;;;;;8.33;5.33;;;;;-146.67;21.37;72396.22;5040065;28;63807;-77
2022/07/19 08:53:18;;;;;;;;;7.67;7.00;;;;;-146.67;21.73;72392.22;5062378;28;61796;-75
2022/07/19 08:55:44;;;;;;;;;7.67;6.00;;;;;-146.67;21.69;72386.22;5063221;28;62085;-74
2022/07/19 08:58:09;;;;;;;;;7.00;7.00;;;;;-146.67;21.43;72376.25;5064709;28;61933;-73
2022/07/19 09:00:35;;;;;;;;;10.33;6.33;;;;;-146.67;21.25;72370.25;5045650;28;63715;-74
2022/07/19 09:03:05;;;;;;;;;9.00;8.00;;;;;-146.67;21.52;72360.28;5064390;28;61763;-74
2022/07/19 09:05:33;;;;;;;;;7.67;6.33;;;;;-146.67;21.39;72360.28;5064639;28;61847;-74
2022/07/19 09:08:09;;;;;;;;;7.67;6.67;;;;;-146.67;21.42;72352.31;5064243;28;62049;-75
2022/07/19 09:10:37;;;;;;;;;5.67;5.33;;;;;-146.67;21.41;72340.34;5063772;28;62847;-75
2022/07/19 09:13:08;;;;;;;;;6.67;6.00;;;;;-146.67;21.57;72332.34;5063719;28;61801;-77
2022/07/19 09:15:51;;;;;;;;;7.33;5.67;;;;;-146.67;21.24;72328.38;5059360;28;62063;-74
2022/07/19 09:18:18;;;;;;;;;11.33;7.00;;;;;-146.67;21.72;72314.41;5044391;28;61949;-75
2022/07/19 09:20:45;;;;;;;;;8.00;6.33;;;;;-146.67;21.71;72310.41;5043295;28;61857;-74
2022/07/19 09:23:11;;;;;;;;;9.67;6.33;;;;;-146.67;21.06;72298.44;5046071;28;61996;-74
2022/07/19 09:25:40;;;;;;;;;9.67;6.33;;;;;-146.67;20.81;72292.44;5063860;28;61936;-74
2022/07/19 09:28:06;;;;;;;;;7.33;6.00;;;;;-146.67;20.72;72286.47;5064157;28;61786;-75
2022/07/19 09:30:43;;;;;;;;;6.67;5.67;;;;;-146.67;20.85;72272.50;5045150;28;64873;-75
2022/07/19 09:33:20;;;;;;;;;6.00;6.00;;;;;-146.67;21.22;72260.53;5063763;28;61889;-75
2022/07/19 09:35:51;;;;;;;;;8.67;6.67;;;;;-146.67;20.59;72250.53;5063553;28;61730;-74
2022/07/19 09:38:25;;;;;;;;;9.00;7.00;;;;;-146.67;20.62;72240.56;5063625;28;61694;-73
2022/07/19 09:40:54;;;;;;;;;9.67;6.00;;;;;-146.67;20.68;72234.59;5062651;28;61816;-74
2022/07/19 09:43:24;;;;;;;;;6.00;5.67;;;;;-146.67;20.62;72228.59;5058768;28;62463;-74
2022/07/19 09:45:50;;;;;;;;;7.00;5.67;;;;;-146.67;20.45;72210.63;5055919;28;61956;-74
2022/07/19 09:48:16;;;;;;;;;6.67;5.33;;;;;-146.67;20.47;72196.66;5061063;28;61896;-74
2022/07/19 09:50:46;;;;;;;;;5.67;5.67;;;;;-146.67;19.89;72192.69;5062255;28;62663;-75
2022/07/19 09:53:21;;;;;;;;;8.67;7.00;;;;;-146.67;20.42;72180.72;5061455;28;61799;-74
2022/07/19 09:55:50;;;;;;;;;5.67;5.67;;;;;-146.67;19.84;72168.72;5062165;28;61902;-74
2022/07/19 09:58:25;;;;;;;;;5.00;5.00;;;;;-146.67;19.85;72160.75;5060628;28;62179;-75
2022/07/19 10:01:15;;;;;;;;;5.00;5.00;;;;;-146.67;20.21;72152.78;5061237;28;62699;-75
2022/07/19 10:03:46;;;;;;;;;7.00;5.67;;;;;-146.67;19.88;72140.81;5062382;28;62132;-75
2022/07/19 10:06:13;;;;;;;;;8.33;5.33;;;;;-146.67;20.02;72124.84;5062206;28;61934;-75
2022/07/19 10:08:47;;;;;;;;;6.00;5.00;;;;;-146.67;19.69;72118.84;5060914;28;61840;-73
2022/07/19 10:11:18;;;;;;;;;5.67;5.67;;;;;-146.67;19.81;72102.91;5062746;28;63068;-74
2022/07/19 10:13:47;;;;;;;;;6.33;5.00;;;;;-146.67;19.67;72090.91;5062758;28;61918;-74
2022/07/19 10:16:17;;;;;;;;;7.33;5.33;;;;;-146.67;19.67;72070.97;5062544;28;61847;-74
2022/07/19 10:19:07;;;;;;;;;5.67;5.67;;;;;-146.67;19.88;72049.03;5063009;28;61917;-74
2022/07/19 10:21:33;;;;;;;;;7.33;6.00;;;;;-146.67;19.34;72031.06;5062191;28;62932;-73
2022/07/19 10:24:00;;;;;;;;;5.00;5.00;;;;;-146.67;19.45;72015.09;5062333;28;62049;-74
2022/07/19 10:26:36;;;;;;;;;6.00;6.00;;;;;-146.67;19.56;71989.16;5060903;28;61775;-73
2022/07/19 10:29:15;;;;;;;;;10.67;7.00;;;;;-146.67;19.38;71983.19;5062904;28;61841;-74
2022/07/19 10:31:43;;;;;;;;;5.67;5.67;;;;;-146.67;19.38;71959.25;5062093;28;63134;-75
2022/07/19 10:34:21;;;;;;;;;7.67;6.67;;;;;-146.67;19.30;71945.28;5062482;28;61995;-74
2022/07/19 10:36:48;;;;;;;;;7.67;6.67;;;;;-146.67;19.21;71935.28;5062575;28;61718;-75
2022/07/19 10:39:14;;;;;;;;;7.33;4.00;;;;;-146.67;18.69;71925.31;5062820;28;61734;-76
2022/07/19 10:41:39;;;;;;;;;8.67;5.00;;;;;-146.67;18.98;71909.34;5061595;28;62495;-75
2022/07/19 10:44:11;;;;;;;;;6.00;4.33;;;;;-146.67;18.87;71899.38;5043087;28;61830;-75
2022/07/19 10:46:50;;;;;;;;;7.00;6.33;;;;;-146.67;18.84;71889.41;5070870;27;62130;-74
2022/07/19 10:49:53;;;;;;;;;7.00;4.33;;;;;-146.67;18.80;71857.47;5060110;28;61900;-75
2022/07/19 10:52:33;;;;;;;;;6.00;4.67;;;;;-146.67;18.91;71843.53;5041816;28;62964;-75
2022/07/19 10:55:24;;;;;;;;;8.00;5.33;;;;;-146.67;18.79;71829.56;5043658;28;61987;-75
2022/07/19 10:58:06;;;;;;;;;9.33;6.00;;;;;-146.67;18.89;71813.59;5043738;28;61928;-78
2022/07/19 11:00:46;;;;;;;;;6.00;5.00;;;;;-146.67;18.75;71805.63;5061864;28;61763;-77
2022/07/19 11:03:23;;;;;;;;;6.00;5.00;;;;;-146.67;18.49;71785.66;5023025;28;61984;-74
2022/07/19 11:06:01;;;;;;;;;6.00;5.33;;;;;-146.67;18.60;71759.72;5060947;28;61853;-77
2022/07/19 11:08:41;;;;;;;;;4.67;4.67;;;;;-146.67;18.43;71741.78;5061568;28;61988;-74
2022/07/19 11:11:25;;;;;;;;;6.33;4.67;;;;;-146.67;18.60;71731.78;5061247;28;61961;-77
2022/07/19 11:14:50;;;;;;;;;7.00;7.00;;;;;-146.67;18.89;71727.81;5059252;28;61751;-78
2022/07/19 11:17:39;;;;;;;;;6.00;6.00;;;;;-146.67;18.46;71701.88;4921416;28;61888;-75
